Time;durP1;ratioP1;P1;durP2;ratioP2;P2;SDS_P1;SDS_P2;PMS_P1;PMS_P2;Temp;Humidity;BMP_temperature;BMP_pressure;BME280_temperature;BME280_humidity;BME280_pressure;Samples;Min_cycle;Max_cycle;Signal;HPM_P1;HPM_P2
2023/01/11 00:01:08;;;;;;;6.22;3.15;;;;;;;5.38;55.24;99639.72;5105678;28;20122;-71
2023/01/11 00:03:35;;;;;;;3.53;2.40;;;;;;;4.89;55.32;99556.22;5105378;28;20195;-71
2023/01/11 00:06:03;;;;;;;4.20;2.40;;;;;;;5.37;55.50;99626.63;5105337;28;20211;-71
2023/01/11 00:08:30;;;;;;;4.20;2.45;;;;;;;5.34;55.36;99635.47;5105604;28;20040;-71
2023/01/11 00:11:01;;;;;;;4.28;2.53;;;;;;;4.72;55.20;99548.81;5105339;28;20300;-71
2023/01/11 00:13:28;;;;;;;4.95;2.45;;;;;;;5.28;55.52;99633.03;5104992;28;20036;-71
2023/01/11 00:15:54;;;;;;;6.82;2.50;;;;;;;5.28;55.56;99648.78;5104757;28;20038;-71
2023/01/11 00:18:23;;;;;;;3.78;2.38;;;;;;;5.28;55.56;99627.75;5105442;28;20036;-71
2023/01/11 00:20:50;;;;;;;3.85;2.70;;;;;;;5.28;55.58;99633.03;5105418;28;20107;-71
2023/01/11 00:23:17;;;;;;;5.40;2.63;;;;;;;5.28;55.65;99638.28;5105742;28;20040;-71
2023/01/11 00:25:44;;;;;;;4.78;2.67;;;;;;;5.28;55.65;99642.66;5104373;28;20119;-71
2023/01/11 00:28:10;;;;;;;5.15;3.00;;;;;;;4.89;55.91;99564.09;5087884;28;20043;-70
2023/01/11 00:30:37;;;;;;;3.50;2.20;;;;;;;5.25;55.79;99625.22;5104293;28;20032;-71
2023/01/11 00:33:04;;;;;;;4.13;2.20;;;;;;;5.24;55.94;99620.00;5104314;28;20035;-72
2023/01/11 00:35:33;;;;;;;4.30;2.60;;;;;;;4.88;56.00;99558.88;5104226;28;20075;-71
2023/01/11 00:37:59;;;;;;;3.55;2.55;;;;;;;5.22;55.95;99616.56;5105036;28;20107;-71
2023/01/11 00:40:26;;;;;;;4.63;2.30;;;;;;;5.21;56.10;99610.47;5103963;28;20054;-71
2023/01/11 00:48:39;;;;;;;4.72;2.90;;;;;;;5.14;56.58;99614.16;5104866;28;20082;-70
2023/01/11 00:51:07;;;;;;;5.93;2.88;;;;;;;5.13;56.66;99612.44;5104095;28;20032;-71
2023/01/11 00:53:34;;;;;;;5.90;3.28;;;;;;;5.15;56.69;99622.91;5104065;28;20035;-71
2023/01/11 00:56:01;;;;;;;4.35;3.22;;;;;;;5.12;56.81;99626.50;5107926;28;20036;-71
2023/01/11 00:58:28;;;;;;;4.53;2.80;;;;;;;5.12;56.89;99631.75;5107958;28;20052;-71
2023/01/11 01:00:54;;;;;;;9.00;3.00;;;;;;;5.10;56.94;99626.53;5107606;28;20036;-70
2023/01/11 01:03:21;;;;;;;4.45;2.70;;;;;;;4.12;56.99;99460.34;5108831;28;20309;-71
2023/01/11 01:05:48;;;;;;;6.15;2.75;;;;;;;4.90;57.08;99589.47;5107561;28;20040;-71
2023/01/11 01:08:17;;;;;;;5.13;2.90;;;;;;;5.09;57.15;99622.19;5107737;28;20119;-71
2023/01/11 01:10:43;;;;;;;5.30;2.78;;;;;;;5.10;57.15;99623.03;5108900;28;20044;-71
2023/01/11 01:16:01;;;;;;;3.95;2.78;;;;;;;5.03;57.33;99614.47;5017397;28;20121;-71
2023/01/11 01:18:28;;;;;;;6.95;3.28;;;;;;;5.00;57.65;99616.34;5108218;28;20035;-71
2023/01/11 01:20:55;;;;;;;4.93;3.10;;;;;;;4.98;57.58;99612.88;5107356;28;20040;-71
2023/01/11 01:23:23;;;;;;;7.13;3.25;;;;;;;4.95;57.91;99616.47;5107237;28;20051;-71
2023/01/11 01:25:49;;;;;;;4.50;2.90;;;;;;;4.94;57.88;99643.63;5108559;28;20039;-71
2023/01/11 01:28:17;;;;;;;4.85;2.88;;;;;;;4.59;58.05;99559.69;5108198;28;20284;-70
2023/01/11 01:30:49;;;;;;;6.57;3.70;;;;;;;4.90;58.08;99617.50;5107286;28;20044;-70
2023/01/11 01:33:16;;;;;;;6.63;3.80;;;;;;;4.88;58.21;99614.88;5107851;28;20062;-70
2023/01/11 01:35:42;;;;;;;3.70;2.70;;;;;;;4.86;58.48;99603.56;5107791;28;20055;-70
2023/01/11 01:38:09;;;;;;;4.70;2.90;;;;;;;4.85;58.46;99614.97;5107774;28;20104;-71
2023/01/11 01:40:55;;;;;;;4.65;2.67;;;;;;;3.20;58.07;99359.69;5073649;28;20044;-71
2023/01/11 01:43:48;;;;;;;5.15;3.65;;;;;;;4.17;58.63;99510.06;5105942;28;20054;-70
2023/01/11 01:49:37;;;;;;;6.55;3.22;;;;;;;4.15;58.76;99523.22;5107484;28;20202;-71
2023/01/11 01:52:04;;;;;;;5.22;2.97;;;;;;;4.71;58.82;99610.09;5107484;28;20270;-71
2023/01/11 01:54:39;;;;;;;6.90;3.00;;;;;;;4.69;58.88;99608.41;5107365;28;20325;-72
2023/01/11 01:57:12;;;;;;;5.50;3.28;;;;;;;4.67;58.96;99607.59;5106546;28;20051;-72
2023/01/11 01:59:40;;;;;;;6.75;3.88;;;;;;;4.66;59.05;99605.88;5106366;28;20047;-72
2023/01/11 02:02:07;;;;;;;5.03;3.20;;;;;;;4.63;59.01;99596.31;5107332;28;20249;-72
2023/01/11 02:04:38;;;;;;;6.35;3.35;;;;;;;4.46;59.02;99567.03;5107234;28;20036;-72
2023/01/11 02:07:08;;;;;;;5.35;3.50;;;;;;;3.75;59.07;99463.09;5107664;28;20028;-71
2023/01/11 02:09:42;;;;;;;4.15;2.83;;;;;;;4.18;59.19;99528.38;5106272;28;20046;-71
2023/01/11 02:12:11;;;;;;;10.25;3.80;;;;;;;4.57;59.26;99601.72;5106217;28;20036;-71
2023/01/11 02:14:40;;;;;;;4.85;3.25;;;;;;;4.48;59.23;99586.22;5107509;28;20051;-72
2023/01/11 02:17:07;;;;;;;7.53;3.67;;;;;;;4.55;59.27;99589.53;5106128;28;20031;-72
2023/01/11 02:19:47;;;;;;;5.45;2.88;;;;;;;4.54;58.87;99604.44;5107243;28;20043;-72
2023/01/11 02:22:39;;;;;;;6.25;3.50;;;;;;;3.85;59.09;99474.19;5107116;28;20215;-72
2023/01/11 02:25:26;;;;;;;5.90;3.17;;;;;;;4.45;59.23;99581.91;5107094;28;20195;-71
2023/01/11 02:28:12;;;;;;;6.18;3.15;;;;;;;4.45;59.39;99587.16;5106062;28;20036;-72
2023/01/11 02:30:50;;;;;;;8.02;3.53;;;;;;;4.42;59.57;99587.25;5106844;28;20050;-71
2023/01/11 02:33:27;;;;;;;4.95;3.42;;;;;;;3.91;59.69;99507.25;5106290;28;20051;-72
2023/01/11 02:36:07;;;;;;;6.47;3.40;;;;;;;4.36;59.69;99578.69;5088913;28;20028;-72
2023/01/11 02:38:41;;;;;;;5.82;3.65;;;;;;;3.80;59.67;99492.66;5105737;28;20047;-72
2023/01/11 02:41:19;;;;;;;4.70;2.85;;;;;;;4.37;59.74;99577.78;5105409;28;20145;-72
2023/01/11 02:46:46;;;;;;;6.38;3.78;;;;;;;4.35;59.87;99563.84;5106353;28;20059;-71
2023/01/11 02:49:24;;;;;;;4.10;3.13;;;;;;;4.34;59.83;99567.34;5106423;28;20047;-70
2023/01/11 02:51:55;;;;;;;6.00;3.47;;;;;;;4.31;59.93;99573.56;5106503;28;20032;-69
2023/01/11 02:54:24;;;;;;;4.22;3.03;;;;;;;4.31;59.95;99567.44;5106571;28;20105;-71
2023/01/11 02:56:55;;;;;;;5.78;3.50;;;;;;;4.29;59.96;99558.75;5106807;28;20040;-70
2023/01/11 02:59:30;;;;;;;5.35;3.50;;;;;;;3.55;59.91;99436.53;5105658;28;20241;-70
2023/01/11 03:01:56;;;;;;;6.93;3.40;;;;;;;4.03;59.97;99520.91;5105232;28;20057;-70
2023/01/11 03:04:25;;;;;;;4.45;3.20;;;;;;;4.27;60.03;99558.78;5106997;28;20182;-69
2023/01/11 03:06:59;;;;;;;4.45;3.00;;;;;;;4.24;60.04;99547.50;5105206;28;20046;-71
2023/01/11 03:09:35;;;;;;;6.65;3.47;;;;;;;4.22;60.16;99547.56;5106074;28;20040;-70
2023/01/11 03:15:16;;;;;;;6.93;3.30;;;;;;;4.15;60.16;99554.69;5105601;28;20123;-72
2023/01/11 03:17:54;;;;;;;5.70;2.90;;;;;;;3.47;60.24;99441.09;5105465;28;20051;-72
2023/01/11 03:20:25;;;;;;;9.02;3.40;;;;;;;2.93;60.19;99346.41;5105836;28;20101;-72
2023/01/11 03:23:04;;;;;;;5.05;3.35;;;;;;;4.15;60.03;99559.94;5105606;28;20119;-72
2023/01/11 03:25:40;;;;;;;7.82;3.30;;;;;;;4.13;60.25;99555.63;5105467;28;20044;-72
2023/01/11 03:28:16;;;;;;;6.07;3.55;;;;;;;4.13;60.19;99559.13;5105847;28;20214;-72
2023/01/11 03:30:52;;;;;;;5.47;3.45;;;;;;;4.12;60.13;99549.53;5106025;28;20044;-72
2023/01/11 03:33:25;;;;;;;4.95;3.10;;;;;;;4.10;60.17;99548.72;5106575;28;20161;-72
2023/01/11 03:36:00;;;;;;;6.40;3.70;;;;;;;2.55;60.00;99306.31;5106271;28;20048;-72
2023/01/11 03:38:30;;;;;;;6.68;4.60;;;;;;;0.52;60.16;98953.00;5105181;28;20035;-72
2023/01/11 03:41:04;;;;;;;5.57;3.30;;;;;;;4.08;60.25;99549.66;5105361;28;20311;-72
2023/01/11 03:43:34;;;;;;;7.68;4.20;;;;;;;4.03;60.28;99541.03;5104961;28;20039;-72
2023/01/11 03:46:06;;;;;;;4.72;3.30;;;;;;;4.04;60.39;99540.13;5105864;28;20210;-71
2023/01/11 03:48:38;;;;;;;6.07;3.42;;;;;;;4.04;60.29;99548.00;5105789;28;20044;-71
2023/01/11 03:51:09;;;;;;;8.13;3.70;;;;;;;3.13;60.22;99396.53;5106142;28;20347;-73
2023/01/11 03:53:40;;;;;;;5.35;3.17;;;;;;;3.60;60.47;99501.94;5105146;28;20040;-73
2023/01/11 03:56:11;;;;;;;7.10;4.85;;;;;;;3.93;60.46;99550.91;5105494;28;20093;-72
2023/01/11 03:58:42;;;;;;;7.10;3.55;;;;;;;3.89;60.69;99549.25;5104681;28;20047;-71
2023/01/11 04:01:12;;;;;;;6.38;3.28;;;;;;;2.74;60.62;99361.69;5105390;28;20048;-72
2023/01/11 04:03:39;;;;;;;5.45;3.10;;;;;;;3.49;60.74;99484.72;5105318;28;20036;-72
2023/01/11 04:06:06;;;;;;;7.35;3.58;;;;;;;3.88;60.72;99550.16;5105462;28;20056;-72
2023/01/11 04:08:33;;;;;;;7.10;3.72;;;;;;;3.87;60.72;99551.06;5105400;28;20044;-72
2023/01/11 04:11:00;;;;;;;5.38;3.13;;;;;;;3.88;60.62;99551.91;5104517;28;20028;-72
2023/01/11 04:13:26;;;;;;;10.68;3.63;;;;;;;3.88;60.68;99544.91;5104450;28;20304;-72
2023/01/11 04:15:54;;;;;;;8.13;4.18;;;;;;;3.63;60.59;99504.47;5105447;28;20051;-72
2023/01/11 04:18:22;;;;;;;7.18;4.57;;;;;;;3.82;60.71;99540.69;5105405;28;20233;-72
2023/01/11 04:20:49;;;;;;;6.45;3.55;;;;;;;3.78;60.74;99546.03;5105337;28;20039;-72
2023/01/11 04:23:15;;;;;;;7.53;4.68;;;;;;;0.05;60.52;98912.28;5104307;28;20296;-72
2023/01/11 04:25:42;;;;;;;5.72;3.58;;;;;;;3.79;60.73;99539.88;5105442;28;20200;-72
2023/01/11 04:28:09;;;;;;;11.63;4.38;;;;;;;2.46;60.41;99320.47;5104337;28;20063;-70
2023/01/11 04:30:36;;;;;;;7.63;4.13;;;;;;;3.44;60.69;99504.06;5108102;28;20179;-71
2023/01/11 04:33:03;;;;;;;6.45;3.72;;;;;;;3.54;60.56;99492.44;5109277;28;20040;-71
2023/01/11 04:35:31;;;;;;;5.97;3.80;;;;;;;3.79;60.56;99526.78;5109261;28;20044;-71
2023/01/11 04:37:58;;;;;;;5.28;3.92;;;;;;;3.77;60.71;99542.56;5108894;28;20036;-71
2023/01/11 04:40:27;;;;;;;5.18;3.47;;;;;;;3.77;60.62;99539.06;5107998;28;20043;-71
2023/01/11 04:42:53;;;;;;;8.38;4.63;;;;;;;3.76;60.52;99542.59;5108728;28;20050;-71
2023/01/11 04:45:20;;;;;;;5.43;3.70;;;;;;;3.76;60.65;99529.47;5108141;28;20071;-71
2023/01/11 04:47:53;;;;;;;7.43;4.47;;;;;;;3.76;60.64;99529.47;5108335;28;20047;-71
2023/01/11 04:50:20;;;;;;;12.32;5.10;;;;;;;3.72;60.63;99522.59;5107794;28;20124;-71
2023/01/11 04:52:48;;;;;;;8.38;5.00;;;;;;;3.70;60.83;99527.00;5108872;28;20036;-71
2023/01/11 04:55:15;;;;;;;8.88;4.63;;;;;;;3.67;60.76;99521.84;5107754;28;20043;-71
2023/01/11 04:57:43;;;;;;;7.93;4.47;;;;;;;3.62;61.06;99521.09;5108776;28;20249;-72
2023/01/11 05:00:12;;;;;;;7.70;4.35;;;;;;;3.41;61.02;99483.16;5107569;28;20243;-72
2023/01/11 05:02:39;;;;;;;8.18;4.82;;;;;;;3.55;61.35;99511.66;5107511;28;20046;-71
2023/01/11 05:05:08;;;;;;;8.10;4.25;;;;;;;3.53;61.56;99519.56;5108670;28;20191;-72
2023/01/11 05:07:36;;;;;;;10.55;4.90;;;;;;;3.52;61.44;99510.84;5108569;28;20043;-71
2023/01/11 05:10:05;;;;;;;8.32;4.75;;;;;;;3.46;61.72;99510.13;5107390;28;20043;-72
2023/01/11 05:12:32;;;;;;;8.25;5.30;;;;;;;3.41;61.73;99507.59;5108487;28;20182;-71
2023/01/11 05:14:59;;;;;;;7.13;4.57;;;;;;;3.41;61.86;99502.38;5090568;28;20040;-71
2023/01/11 05:17:25;;;;;;;9.50;4.40;;;;;;;3.39;61.94;99500.69;5107241;28;20036;-71
2023/01/11 05:19:52;;;;;;;7.15;4.72;;;;;;;3.41;61.96;99498.88;5108637;28;20047;-71
2023/01/11 05:22:19;;;;;;;6.68;4.55;;;;;;;3.37;61.97;99492.88;5107116;28;20296;-71
2023/01/11 05:24:46;;;;;;;6.95;4.50;;;;;;;3.37;62.19;99492.88;5108072;28;20058;-71
2023/01/11 05:27:14;;;;;;;9.27;5.22;;;;;;;3.37;62.04;99497.25;5108522;28;20118;-71
2023/01/11 05:29:42;;;;;;;8.98;4.35;;;;;;;3.33;62.02;99499.06;5108429;28;20052;-71
2023/01/11 05:32:11;;;;;;;6.15;4.00;;;;;;;3.29;62.03;99497.41;5107492;28;20051;-71
2023/01/11 05:34:38;;;;;;;7.85;4.72;;;;;;;3.22;62.32;99500.22;5107140;28;20051;-71
2023/01/11 05:37:04;;;;;;;6.20;4.22;;;;;;;3.23;62.33;99507.19;5108054;28;20040;-71
2023/01/11 05:39:31;;;;;;;9.68;5.97;;;;;;;3.23;62.36;99513.28;5108101;28;20044;-71
2023/01/11 05:41:58;;;;;;;10.00;4.70;;;;;;;3.22;62.39;99516.78;5106834;28;20197;-71
2023/01/11 05:47:10;;;;;;;11.57;5.03;;;;;;;3.16;62.72;99515.19;5107739;28;20100;-71
2023/01/11 05:49:37;;;;;;;10.25;5.45;;;;;;;2.97;62.63;99474.59;5107734;28;20288;-71
2023/01/11 05:52:04;;;;;;;8.10;4.88;;;;;;;3.19;62.75;99501.16;5107099;28;20040;-71
2023/01/11 05:54:31;;;;;;;8.57;4.95;;;;;;;3.05;62.82;99479.66;5107874;28;20048;-71
2023/01/11 05:56:57;;;;;;;9.15;5.20;;;;;;;3.21;62.79;99509.84;5107825;28;20044;-71
2023/01/11 05:59:26;;;;;;;9.45;5.28;;;;;;;3.21;62.71;99501.97;5107819;28;20050;-71
2023/01/11 06:01:53;;;;;;;8.57;5.65;;;;;;;3.18;62.67;99504.66;5089481;28;20048;-71
2023/01/11 06:04:20;;;;;;;8.35;5.90;;;;;;;3.14;62.82;99501.25;5106283;28;20040;-71
2023/01/11 06:06:46;;;;;;;6.85;4.75;;;;;;;3.11;62.97;99500.47;5107146;28;20050;-72
2023/01/11 06:09:13;;;;;;;8.18;5.97;;;;;;;3.08;62.92;99501.41;5107302;28;20036;-71
2023/01/11 06:11:40;;;;;;;9.75;6.22;;;;;;;3.09;63.07;99497.03;5107062;28;20043;-71
2023/01/11 06:14:07;;;;;;;8.15;5.50;;;;;;;3.11;62.95;99501.31;5106966;28;20036;-71
2023/01/11 06:16:35;;;;;;;9.27;6.25;;;;;;;3.09;62.86;99505.72;5106101;28;20212;-71
2023/01/11 06:19:02;;;;;;;13.77;6.57;;;;;;;3.09;63.08;99507.50;5107422;28;20161;-71
2023/01/11 06:21:29;;;;;;;16.27;8.55;;;;;;;3.09;63.11;99507.50;5105863;28;20047;-71
2023/01/11 06:23:56;;;;;;;12.13;8.20;;;;;;;3.08;63.00;99501.41;5107321;28;20051;-71
2023/01/11 06:26:23;;;;;;;12.90;8.48;;;;;;;2.61;62.91;99418.69;5107298;28;20044;-71
2023/01/11 06:28:50;;;;;;;10.90;7.00;;;;;;;3.11;63.05;99501.31;5105879;28;20063;-71
2023/01/11 06:31:17;;;;;;;11.77;7.05;;;;;;;3.05;63.21;99504.09;5106421;28;20040;-71
2023/01/11 06:33:46;;;;;;;12.98;6.47;;;;;;;3.02;63.34;99504.16;5106599;28;20044;-70
2023/01/11 06:36:14;;;;;;;11.77;7.03;;;;;;;2.36;63.16;99405.28;5106961;28;20036;-71
2023/01/11 06:38:41;;;;;;;10.48;6.95;;;;;;;2.95;63.33;99491.22;5106500;28;20310;-71
2023/01/11 06:41:08;;;;;;;10.40;5.90;;;;;;;2.76;63.27;99462.84;5105474;28;20070;-71
2023/01/11 06:43:36;;;;;;;10.18;6.93;;;;;;;2.77;63.18;99477.66;5106776;28;20072;-71
2023/01/11 06:46:03;;;;;;;13.48;6.20;;;;;;;2.67;63.18;99454.31;5106424;28;20055;-71
2023/01/11 06:48:30;;;;;;;7.65;5.90;;;;;;;2.96;63.22;99508.66;5106281;28;20283;-71
2023/01/11 06:50:59;;;;;;;10.63;6.32;;;;;;;2.95;63.04;99514.78;5105952;28;20044;-71
2023/01/11 06:53:27;;;;;;;8.63;5.65;;;;;;;2.92;62.88;99510.47;5104568;28;20299;-71
2023/01/11 06:55:55;;;;;;;10.50;5.53;;;;;;;2.95;63.00;99515.66;5106229;28;20036;-71
2023/01/11 06:58:23;;;;;;;11.63;6.43;;;;;;;2.77;62.99;99479.41;5105394;28;20053;-71
2023/01/11 07:00:51;;;;;;;12.07;6.38;;;;;;;2.36;62.46;99417.50;5105311;28;20040;-71
2023/01/11 07:03:19;;;;;;;8.75;6.00;;;;;;;2.37;62.71;99424.44;5106212;28;20292;-71
2023/01/11 07:05:46;;;;;;;9.38;5.43;;;;;;;2.94;62.91;99518.31;5106621;28;20051;-71
2023/01/11 07:08:16;;;;;;;11.25;6.15;;;;;;;2.91;63.24;99523.59;5106273;28;20093;-71
2023/01/11 07:10:43;;;;;;;10.30;6.32;;;;;;;2.88;63.25;99519.28;5106184;28;20036;-70
2023/01/11 07:13:11;;;;;;;10.45;6.50;;;;;;;2.85;63.60;99515.00;5106301;28;20052;-70
2023/01/11 07:15:38;;;;;;;11.75;6.88;;;;;;;2.85;63.51;99520.22;5104990;28;20032;-70
2023/01/11 07:18:05;;;;;;;10.90;6.93;;;;;;;2.83;63.52;99519.41;5104770;28;20040;-70
2023/01/11 07:20:32;;;;;;;10.93;7.82;;;;;;;2.82;63.66;99522.91;5105542;28;20311;-69
2023/01/11 07:23:00;;;;;;;10.32;6.68;;;;;;;2.80;63.51;99516.84;5105945;28;20085;-70
2023/01/11 07:25:29;;;;;;;11.18;7.38;;;;;;;1.87;63.57;99348.78;5106059;28;20032;-70
2023/01/11 07:27:58;;;;;;;11.80;7.10;;;;;;;2.86;63.51;99515.84;5105704;28;20050;-71
2023/01/11 07:30:27;;;;;;;15.27;8.32;;;;;;;2.83;63.51;99511.53;5104706;28;20039;-70
2023/01/11 07:32:54;;;;;;;12.00;7.20;;;;;;;2.84;63.54;99528.97;5105785;28;20032;-71
2023/01/11 07:35:21;;;;;;;9.27;5.63;;;;;;;2.85;63.55;99517.59;5104577;28;20044;-71
2023/01/11 07:37:48;;;;;;;10.00;5.80;;;;;;;2.86;63.32;99514.09;5105662;28;20044;-71
2023/01/11 07:40:16;;;;;;;10.27;5.10;;;;;;;2.86;63.20;99514.09;5105058;28;20320;-70
2023/01/11 07:45:34;;;;;;;6.93;5.22;;;;;;;2.64;63.00;99465.72;5105735;28;20040;-71
2023/01/11 07:48:01;;;;;;;7.32;5.40;;;;;;;2.88;62.95;99509.69;5104757;28;20056;-71
2023/01/11 07:50:28;;;;;;;8.70;5.05;;;;;;;2.86;63.07;99501.00;5105406;28;20295;-70
2023/01/11 07:52:55;;;;;;;8.45;5.40;;;;;;;2.85;63.00;99512.38;5105891;28;20356;-71
2023/01/11 07:55:22;;;;;;;6.47;4.85;;;;;;;2.86;62.96;99518.47;5104402;28;20040;-70
2023/01/11 07:57:50;;;;;;;10.40;6.10;;;;;;;2.86;63.04;99527.19;5105844;28;20040;-71
2023/01/11 08:00:18;;;;;;;7.72;4.60;;;;;;;2.90;63.03;99504.41;5104341;28;20028;-71
2023/01/11 08:02:45;;;;;;;7.60;5.63;;;;;;;2.97;63.03;99508.63;5105256;28;20066;-70
2023/01/11 08:05:11;;;;;;;10.93;4.95;;;;;;;3.02;62.84;99512.00;5109101;28;20052;-71
2023/01/11 08:07:42;;;;;;;7.43;5.03;;;;;;;3.06;63.08;99510.19;5109689;28;20288;-71
2023/01/11 08:10:09;;;;;;;10.85;6.22;;;;;;;3.11;62.93;99510.94;5108484;28;20230;-71
2023/01/11 08:15:28;;;;;;;10.10;7.78;;;;;;;3.23;62.72;99501.94;5108227;28;20048;-70
2023/01/11 08:17:55;;;;;;;10.02;6.75;;;;;;;3.11;62.46;99476.91;5109259;28;20283;-71
2023/01/11 08:20:22;;;;;;;8.63;5.65;;;;;;;3.36;62.55;99508.63;5109398;28;20048;-71
2023/01/11 08:22:49;;;;;;;10.43;5.97;;;;;;;3.52;62.32;99510.84;5109653;28;20055;-71
2023/01/11 08:25:16;;;;;;;11.07;6.80;;;;;;;3.67;62.12;99504.34;5109583;28;20052;-71
2023/01/11 08:27:43;;;;;;;11.10;6.45;;;;;;;3.20;61.82;99419.91;5108337;28;20040;-70
2023/01/11 08:30:11;;;;;;;9.25;5.47;;;;;;;3.04;61.52;99370.56;5109466;28;20111;-70
2023/01/11 08:32:40;;;;;;;7.50;6.30;;;;;;;3.91;61.43;99508.13;5108880;28;20040;-70
2023/01/11 08:35:07;;;;;;;12.75;6.80;;;;;;;4.00;61.08;99501.78;5109002;28;20047;-71
2023/01/11 08:37:35;;;;;;;9.68;5.78;;;;;;;4.11;61.04;99502.34;5107972;28;20066;-70
2023/01/11 08:40:02;;;;;;;11.63;6.57;;;;;;;4.12;60.69;99617.72;5108520;28;20047;-71
2023/01/11 08:42:29;;;;;;;9.23;6.00;;;;;;;4.29;60.46;99511.53;5108719;28;20107;-71
2023/01/11 08:44:55;;;;;;;10.55;6.32;;;;;;;4.36;60.20;99508.69;5107808;28;20051;-71
2023/01/11 08:47:23;;;;;;;9.65;5.63;;;;;;;4.45;60.18;99512.81;5108974;28;20333;-71
2023/01/11 08:49:51;;;;;;;9.82;5.85;;;;;;;4.55;59.90;99503.78;5108713;28;20043;-71
2023/01/11 08:52:18;;;;;;;8.35;5.28;;;;;;;4.66;59.52;99504.34;5107574;28;20032;-71
2023/01/11 08:54:45;;;;;;;11.82;6.20;;;;;;;4.76;59.46;99502.31;5108840;28;20048;-70
2023/01/11 08:57:12;;;;;;;7.43;4.93;;;;;;;4.70;59.20;99470.97;5107642;28;20054;-70
2023/01/11 08:59:39;;;;;;;10.57;5.93;;;;;;;5.01;58.84;99505.97;5107737;28;20291;-71
2023/01/11 09:02:06;;;;;;;9.52;5.63;;;;;;;5.13;58.48;99502.97;5108455;28;20043;-71
2023/01/11 09:04:33;;;;;;;7.90;5.03;;;;;;;5.08;58.35;99469.84;5107188;28;20048;-71
2023/01/11 09:07:02;;;;;;;10.82;5.30;;;;;;;5.22;58.12;99465.03;5108254;28;20082;-71
2023/01/11 09:09:30;;;;;;;9.25;5.75;;;;;;;5.65;57.98;99505.69;5107284;28;20054;-71
2023/01/11 09:11:59;;;;;;;9.85;5.45;;;;;;;5.64;57.51;99457.50;5107820;28;20086;-71
2023/01/11 09:14:28;;;;;;;8.63;5.25;;;;;;;6.00;56.80;99489.59;5107072;28;20036;-71
2023/01/11 09:16:55;;;;;;;9.07;4.80;;;;;;;5.32;56.48;99374.47;5106271;28;20040;-71
2023/01/11 09:19:23;;;;;;;12.10;5.55;;;;;;;6.17;56.52;99490.78;5107803;28;20305;-71
2023/01/11 09:21:51;;;;;;;9.60;5.53;;;;;;;6.22;56.15;99480.97;5106904;28;20044;-70
2023/01/11 09:24:19;;;;;;;6.60;4.32;;;;;;;6.25;55.83;99472.94;5108240;28;20102;-70
2023/01/11 09:26:46;;;;;;;6.40;4.65;;;;;;;6.29;55.87;99469.28;5107914;28;20173;-71
2023/01/11 09:29:13;;;;;;;6.63;3.97;;;;;;;6.33;55.72;99471.75;5107898;28;20050;-71
2023/01/11 09:31:41;;;;;;;7.78;4.95;;;;;;;6.25;55.73;99439.59;5107599;28;20040;-71
2023/01/11 09:34:09;;;;;;;8.38;5.47;;;;;;;6.56;55.55;99472.69;5106817;28;20040;-71
2023/01/11 09:36:38;;;;;;;11.73;5.78;;;;;;;6.66;55.42;99469.66;5107899;28;20067;-71
2023/01/11 09:39:09;;;;;;;13.45;5.90;;;;;;;5.70;55.24;99302.16;5106791;28;20039;-71
2023/01/11 09:42:10;;;;;;;6.28;4.68;;;;;;;6.79;53.47;99471.84;5107611;28;20086;-71
2023/01/11 09:44:49;;;;;;;7.97;4.90;;;;;;;6.87;54.20;99470.66;5107862;28;20066;-71
2023/01/11 09:47:27;;;;;;;6.70;4.63;;;;;;;6.94;54.54;99461.59;5107471;28;20050;-71
2023/01/11 09:49:58;;;;;;;8.40;4.75;;;;;;;6.87;54.39;99423.25;5107958;28;20044;-71
2023/01/11 09:52:31;;;;;;;6.53;4.47;;;;;;;6.99;54.51;99420.13;5106377;28;20122;-71
2023/01/11 09:55:00;;;;;;;14.05;5.75;;;;;;;7.34;54.44;99446.88;5107602;28;20119;-71
2023/01/11 09:58:06;;;;;;;12.70;6.00;;;;;;;7.05;52.08;99377.72;5107539;28;20052;-71
2023/01/11 10:00:41;;;;;;;;;;;;;;;7.53;50.54;99446.97;5103239;28;20051;-71
2023/01/11 10:03:40;;;;;;;10.73;5.18;;;;;;;7.57;51.18;99435.38;5107245;28;20150;-71
2023/01/11 10:06:17;;;;;;;8.85;5.32;;;;;;;7.56;52.04;99433.66;5106235;28;20292;-71
2023/01/11 10:08:59;;;;;;;9.60;5.15;;;;;;;7.26;51.21;99388.31;5106198;28;20115;-71
2023/01/11 10:11:39;;;;;;;12.93;6.43;;;;;;;7.38;51.76;99430.88;5107222;28;20301;-71
2023/01/11 10:14:21;;;;;;;11.85;4.82;;;;;;;7.30;52.28;99435.56;5107033;28;20048;-71
2023/01/11 10:16:59;;;;;;;8.90;4.65;;;;;;;7.24;52.30;99438.44;5106867;28;20107;-70
2023/01/11 10:19:33;;;;;;;8.30;5.22;;;;;;;7.11;53.04;99439.84;5106895;28;20195;-71
2023/01/11 10:22:07;;;;;;;9.15;5.72;;;;;;;7.01;53.46;99431.47;5105963;28;20044;-70
2023/01/11 10:24:39;;;;;;;7.00;5.20;;;;;;;6.99;53.64;99432.44;5106871;28;20048;-71
2023/01/11 10:27:19;;;;;;;10.88;6.38;;;;;;;6.95;52.32;99429.06;5106765;28;20062;-71
2023/01/11 10:29:57;;;;;;;10.98;6.00;;;;;;;6.28;53.90;99334.19;5106639;28;20176;-71
2023/01/11 10:32:44;;;;;;;8.80;5.00;;;;;;;6.93;52.48;99423.00;5106738;28;20276;-71
2023/01/11 10:35:44;;;;;;;10.65;4.97;;;;;;;6.95;51.99;99421.16;5106480;28;20046;-71
2023/01/11 10:38:37;;;;;;;10.02;6.30;;;;;;;6.70;53.20;99386.97;5106654;28;20133;-71
2023/01/11 10:41:14;;;;;;;7.38;5.18;;;;;;;6.89;53.69;99407.38;5106950;28;20212;-71
2023/01/11 10:43:46;;;;;;;7.68;5.20;;;;;;;6.90;53.44;99417.84;5105441;28;20048;-72
2023/01/11 10:46:17;;;;;;;7.90;4.88;;;;;;;6.50;53.53;99351.81;5105525;28;20035;-71
2023/01/11 10:48:47;;;;;;;10.05;5.38;;;;;;;6.87;53.15;99411.84;5105195;28;20044;-71
2023/01/11 10:51:26;;;;;;;10.57;4.18;;;;;;;6.69;51.34;99387.91;5106557;28;20222;-71
2023/01/11 10:54:04;;;;;;;6.50;3.38;;;;;;;6.75;50.98;99403.47;5106608;28;20050;-71
2023/01/11 10:56:44;;;;;;;7.28;3.30;;;;;;;6.53;51.20;99381.50;5105837;28;20275;-71
2023/01/11 10:59:30;;;;;;;10.57;4.70;;;;;;;6.65;51.21;99412.63;5106620;28;20089;-71
2023/01/11 11:02:09;;;;;;;6.90;3.80;;;;;;;6.61;51.98;99410.19;5105290;28;20097;-71
2023/01/11 11:05:09;;;;;;;8.88;4.20;;;;;;;6.58;50.81;99399.75;5106154;28;20126;-71
2023/01/11 11:07:42;;;;;;;9.38;4.80;;;;;;;6.54;52.96;99398.16;5105930;28;20036;-71
2023/01/11 11:10:20;;;;;;;7.97;4.70;;;;;;;6.50;52.03;99397.41;5105265;28;20061;-71
2023/01/11 11:12:57;;;;;;;7.75;4.32;;;;;;;6.47;52.70;99381.75;5106401;28;20111;-70
2023/01/11 11:15:31;;;;;;;6.32;3.67;;;;;;;6.42;51.81;99389.81;5105007;28;20044;-71
2023/01/11 11:17:59;;;;;;;6.50;3.20;;;;;;;6.42;52.71;99386.31;5106168;28;20047;-70
2023/01/11 11:20:30;;;;;;;9.65;3.45;;;;;;;6.36;51.75;99366.34;5105875;28;20047;-71
2023/01/11 11:22:57;;;;;;;7.32;4.22;;;;;;;5.85;52.58;99284.97;5104751;28;20043;-70
2023/01/11 11:25:29;;;;;;;4.70;3.20;;;;;;;6.39;52.48;99360.97;5106043;28;20196;-71
2023/01/11 11:28:03;;;;;;;4.07;2.85;;;;;;;6.40;51.27;99357.44;5105530;28;20040;-70
2023/01/11 11:30:36;;;;;;;4.95;3.22;;;;;;;6.40;52.00;99349.53;5105541;28;20040;-71
2023/01/11 11:33:08;;;;;;;4.13;2.90;;;;;;;5.99;51.53;99274.78;5104786;28;20234;-70
2023/01/11 11:35:55;;;;;;;6.40;2.80;;;;;;;6.39;49.78;99337.28;5104802;28;20043;-70
2023/01/11 11:38:24;;;;;;;6.38;3.08;;;;;;;6.39;52.05;99331.16;5105231;28;20313;-70
2023/01/11 11:41:03;;;;;;;4.38;2.58;;;;;;;6.39;49.89;99336.44;5104993;28;20203;-70
2023/01/11 11:43:32;;;;;;;5.32;3.42;;;;;;;6.40;51.76;99322.34;5105858;28;20044;-70
2023/01/11 11:46:00;;;;;;;6.55;2.92;;;;;;;6.19;51.79;99292.44;5105632;28;20036;-71
2023/01/11 11:48:30;;;;;;;6.93;3.55;;;;;;;6.34;51.91;99333.09;5104745;28;20062;-70
2023/01/11 11:51:00;;;;;;;6.65;3.80;;;;;;;6.28;51.78;99328.06;5105027;28;20040;-71
2023/01/11 11:53:34;;;;;;;7.28;3.60;;;;;;;6.06;51.64;99294.69;5104641;28;20191;-70
2023/01/11 11:56:07;;;;;;;5.72;3.28;;;;;;;6.26;51.18;99337.81;5105328;28;20044;-71
2023/01/11 11:58:34;;;;;;;5.82;3.35;;;;;;;6.26;52.29;99329.91;5105800;28;20040;-70
2023/01/11 12:01:06;;;;;;;9.98;4.95;;;;;;;4.68;52.48;99058.00;5104932;28;20296;-70
2023/01/11 12:03:34;;;;;;;5.88;3.95;;;;;;;6.28;52.14;99326.31;5105054;28;20291;-70
2023/01/11 12:06:06;;;;;;;5.28;3.28;;;;;;;6.20;51.83;99303.81;5105803;28;20036;-71
2023/01/11 12:08:35;;;;;;;6.05;3.75;;;;;;;6.08;52.21;99292.84;5105279;28;20067;-70
2023/01/11 12:11:05;;;;;;;5.15;2.90;;;;;;;6.24;52.41;99305.44;5105162;28;20124;-70
2023/01/11 12:13:34;;;;;;;4.53;3.92;;;;;;;6.24;52.02;99314.19;5105133;28;20177;-70
2023/01/11 12:16:03;;;;;;;6.60;3.53;;;;;;;6.06;52.44;99278.03;5104246;28;20040;-71
2023/01/11 12:18:40;;;;;;;5.35;3.67;;;;;;;6.25;52.64;99307.13;5105225;28;20211;-70
2023/01/11 12:21:29;;;;;;;6.22;3.67;;;;;;;5.99;50.91;99266.88;5104728;28;20048;-71